Tiempo atmosférico en la estación meteorológica de La Riba de Escalote, Soria (1042 m.)



Fecha
DESCASC
Temp. máxima en grados centígrados (hora)
DESCASC
Temp. mínima en grados centígrados (hora)
DESCASC
Temp. media en grados centígrados
DESCASC
Racha de viento máxima en m/sg (hora)
DESCASC
Velocidad máxima media en intervalos de 10 minutos(hora)
DESCASC
Precipitaciones diarias en mm
DESCASC
Precipitaciones de 00:00 a 06:00 en mm
DESCASC
Precipitaciones de 06:00 a 12:00 en mm
DESCASC
Precipitaciones de 12:00 a 18:00 en mm
DESCASC
Precipitaciones de 18:00 a 24:00 en mm
DESCASC
23-05-2020 25.9 (17:00) 12.4 (23:59) 19.1 11.11 (20:10) 8.33 (20:10) 0 0 0 0 0
22-05-2020 27.3 (17:20) 9 (07:10) 18.1 8.61 (19:00) 6.67 (22:10) 0 0 0 0 0
21-05-2020 27.4 (18:20) 7 (00:00) 17.2 5.83 (15:50) 3.89 (16:00) 0 0 0 0 0
20-05-2020 25.9 (19:00) 4.6 (00:00) 15.2 6.39 (13:50) 3.33 (14:40) 0 0 0 0 0
19-05-2020 23.9 (18:40) 4.8 (06:20) 14.3 8.61 (19:20) 6.11 (15:30) 0 0 0 0 0
18-05-2020 22.7 (17:50) 3.7 (00:00) 13.2 9.72 (20:20) 6.67 (19:30) 0 0 0 0 0
17-05-2020 19.3 (18:40) 3.5 (00:00) 11.4 8.06 (13:30) 4.72 (19:20) 0 0 0 0 0
16-05-2020 13.1 (17:20) 7.1 (00:00) 10.1 8.89 (11:00) 6.39 (10:50) 0.2 0.2 0 0 0
15-05-2020 13.1 (16:50) 7.8 (06:10) 10.5 11.67 (17:50) 8.89 (17:50) 0.8 0.4 0.4 0 0
14-05-2020 11.1 (13:10) 6.5 (00:00) 8.8 8.89 (16:00) 6.39 (16:00) 8.2 0.2 0 6.6 1.4
13-05-2020 14.3 (16:20) 6.9 (00:00) 10.6 8.89 (17:20) 5.28 (17:30) 0.8 0.2 0 0.6 0
12-05-2020 14.2 (16:00) 5.6 (06:00) 9.9 15.83 (16:30) 12.22 (16:30) 12.4 0 0 2 10.4
11-05-2020 15.5 (12:50) 8.4 (00:00) 11.9 12.78 (11:20) 9.17 (11:20) 6.6 0 0 4.4 2.2
10-05-2020 15 (18:30) 8.4 (00:00) 11.7 14.17 (13:50) 10.28 (13:10) 0.6 0.2 0.4 0 0
09-05-2020 19.6 (16:40) 11.6 (07:20) 15.6 14.17 (16:00) 8.61 (15:00) 3.4 3.4 0 0 0
08-05-2020 24.1 (17:50) 9.8 (00:00) 17 9.72 (18:10) 6.94 (18:10) 0 0 0 0 0
07-05-2020 24.1 (15:00) 7.8 (00:00) 16 10.28 (13:30) 7.22 (15:20) 0 0 0 0 0
06-05-2020 22.8 (17:40) 4.2 (00:00) 13.5 5 (15:00) 3.06 (10:50) 0 0 0 0 0
05-05-2020 21 (17:30) 9.3 (00:00) 15.2 10 (16:40) 7.22 (16:40) 0 0 0 0 0
04-05-2020 26.8 (15:20) 11 (00:00) 18.9 18.06 (18:10) 11.67 (18:10) 0 0 0 0 0
03-05-2020 24.2 (16:10) 6.7 (07:00) 15.5 10.28 (17:10) 7.5 (17:20) 0 0 0 0 0
02-05-2020 21.8 (18:10) 9.2 (07:40) 15.5 15 (16:30) 10.28 (16:30) 0 0 0 0 0
01-05-2020 18.6 (17:30) 9 (00:00) 13.8 16.67 (11:20) 12.5 (13:00) 0.2 0 0.2 0 0
30-04-2020 13.5 (17:50) 7.6 (07:20) 10.5 17.22 (11:10) 12.5 (11:10) 0 0 0 0 0
29-04-2020 15.6 (16:50) 5 (00:00) 10.3 16.11 (20:40) 11.39 (20:40) 0 0 0 0 0
28-04-2020 13.1 (17:00) 5.3 (05:50) 9.2 13.61 (12:00) 10.28 (12:00) 0.4 0 0.4 0 0
27-04-2020 11.5 (14:40) 6.5 (00:00) 9 13.06 (18:10) 8.61 (18:20) 1.4 0 0 0.8 0.6
26-04-2020 12.6 (12:30) 9.8 (06:20) 11.2 8.33 (18:20) 5.28 (18:20) 14.4 0 1.4 10.2 2.8

Gráficas

Temp. máximas Temp. mínimas Temp. medias Precipitaciones Rachas de viento máximas Velocidades máximas media en intervalos de 10 minutos

Datos horarios

Fecha y hora oficial Temperatura (ºC) Velocidad del viento (km/h) Dirección del viento Racha (km/h) Dirección de racha Precipitación (mm) Presión (hPa) Tendencia (hPa) Humedad (%)
2020-05-25 23:00:00 15.6 27 Este 33 Este 0 -- -- 92
2020-05-25 22:00:00 15.6 19 Este 29 Nordeste 0 -- -- 85
2020-05-25 21:00:00 16.7 9 Nordeste 52 Sudeste 0 -- -- 77
2020-05-25 20:00:00 15.6 43 Sudeste 57 Sudeste 0.8 -- -- 79
2020-05-25 19:00:00 16 32 Este 48 Este 0 -- -- 81
2020-05-25 18:00:00 16 35 Este 48 Este 6.8 -- -- 83
2020-05-25 17:00:00 17 18 Oeste 40 Sudeste 0.2 -- -- 82
2020-05-25 16:00:00 21.7 29 Este 40 Este 0 -- -- 65
2020-05-25 15:00:00 21.2 14 Este 25 Este 0 -- -- 71
2020-05-25 14:00:00 21.3 18 Sudeste 29 Este 0 -- -- 67
2020-05-25 13:00:00 21.9 19 Este 27 Este 0 -- -- 66
2020-05-25 12:00:00 20.9 17 Este 28 Este 0 -- -- 71
2020-05-25 11:00:00 20.2 16 Este 23 Este 0 -- -- 74
2020-05-25 10:00:00 18.2 15 Este 24 Sudeste 0 -- -- 80
2020-05-25 09:00:00 16.1 17 Sudeste 22 Sudeste 0 -- -- 86
2020-05-25 08:00:00 14.2 15 Sudeste 19 Sudeste 0 -- -- 89
2020-05-25 07:00:00 13.1 10 Sudeste 16 Sudeste 0 -- -- 91
2020-05-25 06:00:00 13.6 8 Sudeste 20 Sudeste 0 -- -- 90
2020-05-25 05:00:00 13.9 16 Sudeste 19 Sudeste 0 -- -- 90
2020-05-25 04:00:00 13.7 6 Noroeste 10 Sudeste 0 -- -- 90
2020-05-25 03:00:00 14 3 Este 15 Sudeste 0 -- -- 89
2020-05-25 02:00:00 14.7 13 Sudeste 16 Sudeste 1.2 -- -- 85
2020-05-25 01:00:00 15.1 2 Norte 9 Sudeste 0 -- -- 84
2020-05-25 00:00:00 15.6 9 Sudeste 12 Sudeste 0 -- -- 80
2020-05-24 23:00:00 16.5 4 Nordeste 27 Este 0 -- -- 76
2020-05-24 22:00:00 17.6 15 Sudeste 31 Este 0.4 -- -- 76
2020-05-24 21:00:00 20.7 15 Sudeste 24 Este 0 -- -- 64
2020-05-24 20:00:00 22.8 8 Sur 11 Sur 0 -- -- 59
2020-05-24 19:00:00 22.2 6 Sur 39 Sudoeste 0.8 -- -- 61
2020-05-24 18:00:00 -- 23 Oeste 37 Oeste 0.2 -- -- --
2020-05-24 17:00:00 24.7 16 Sur 27 Sur 0 -- -- 47
2020-05-24 16:00:00 25 18 Sur 28 Sur 0 -- -- 47
2020-05-24 15:00:00 24.4 15 Sur 28 Sur 0 -- -- 49
2020-05-24 14:00:00 23.7 14 Sudoeste 25 Sudeste 0 -- -- 47
2020-05-24 13:00:00 22.7 13 Sur 24 Sur 0 -- -- 47
2020-05-24 12:00:00 21.2 15 Sudeste 28 Este 0 -- -- 54
2020-05-24 11:00:00 19.1 17 Sudeste 26 Este 0 -- -- 65
2020-05-24 10:00:00 16.5 17 Sudeste 22 Este 0 -- -- 73
2020-05-24 09:00:00 13.5 9 Sudeste 13 Sudeste 0 -- -- 80
2020-05-24 08:00:00 10.3 0 Calma 3 Sudoeste 0 -- -- 90
2020-05-24 07:00:00 8.8 3 Sudoeste 5 Sudoeste 0 -- -- 90
2020-05-24 06:00:00 9.3 2 Oeste 3 Oeste 0 -- -- 87
2020-05-24 05:00:00 9.7 0 Calma 10 Este 0 -- -- 84
2020-05-24 04:00:00 10.2 2 Oeste 6 Este 0 -- -- 83
2020-05-24 03:00:00 10.8 2 Este 11 Este 0 -- -- 81
2020-05-24 02:00:00 11.1 7 Este 20 Este 0 -- -- 84
2020-05-24 01:00:00 11.7 3 Este 17 Este 0 -- -- 84
2020-05-24 00:00:00 12.4 14 Este 22 Este 0 -- -- 84
2020-05-23 23:00:00 13.6 12 Este 23 Nordeste 0 -- -- 81
2020-05-23 22:00:00 15.3 9 Nordeste 32 Nordeste 0 -- -- 76
2020-05-23 21:00:00 18.5 9 Nordeste 40 Este 0 -- -- 68
2020-05-23 20:00:00 22.2 29 Este 39 Este 0 -- -- 60
2020-05-23 19:00:00 25 15 Noroeste 25 Noroeste 0 -- -- 52
2020-05-23 18:00:00 25.6 14 Noroeste 21 Noroeste 0 -- -- 54
2020-05-23 17:00:00 25.9 9 Noroeste 21 Oeste 0 -- -- 51
2020-05-23 16:00:00 24.9 8 Nordeste 18 Norte 0 -- -- 53
2020-05-23 15:00:00 24.6 9 Noroeste 20 Norte 0 -- -- 50
2020-05-23 14:00:00 24.2 9 Norte 24 Noroeste 0 -- -- 51
2020-05-23 13:00:00 23.5 9 Noroeste 20 Noroeste 0 -- -- 52
2020-05-23 12:00:00 22.9 10 Norte 18 Norte 0 -- -- 59
2020-05-23 11:00:00 22.1 11 Norte 18 Norte 0 -- -- 58
2020-05-23 10:00:00 19.9 3 Noroeste 7 Norte 0 -- -- 63
2020-05-23 09:00:00 18.4 2 Este 4 Este 0 -- -- 67
2020-05-23 08:00:00 13.7 2 Sudeste 6 Oeste 0 -- -- 75
2020-05-23 07:00:00 13.2 4 Oeste 6 Oeste 0 -- -- 75
2020-05-23 06:00:00 14.8 0 Calma 10 Sudeste 0 -- -- 67
2020-05-23 05:00:00 15.6 6 Sur 14 Sur 0 -- -- 64
2020-05-23 04:00:00 17.3 2 Norte 12 Oeste 0 -- -- 56
2020-05-23 03:00:00 17.8 8 Oeste 12 Oeste 0 -- -- 53
2020-05-23 02:00:00 17.8 4 Oeste 11 Oeste 0 -- -- 57
2020-05-23 01:00:00 18.7 4 Norte 14 Norte 0 -- -- 54
2020-05-23 00:00:00 20 4 Oeste 12 Oeste 0 -- -- 49
2020-05-22 23:00:00 20.7 4 Oeste 27 Sudoeste 0 -- -- 52
2020-05-22 22:00:00 22.4 23 Sudoeste 27 Sudoeste 0 -- -- 48
2020-05-22 21:00:00 24 17 Sur 28 Sudoeste 0 -- -- 44
2020-05-22 20:00:00 25.9 19 Sudoeste 31 Sur 0 -- -- 39
2020-05-22 19:00:00 26.4 23 Sur 31 Sur 0 -- -- 37
2020-05-22 18:00:00 27.1 19 Sudoeste 30 Sudoeste 0 -- -- 36
2020-05-22 17:00:00 27.1 15 Sur 28 Sur 0 -- -- 36
2020-05-22 16:00:00 26.9 15 Sur 29 Sudoeste 0 -- -- 35
2020-05-22 15:00:00 26.4 18 Sudoeste 28 Sur 0 -- -- 40
2020-05-22 14:00:00 25.8 15 Sudoeste 28 Sur 0 -- -- 40
2020-05-22 13:00:00 25.3 10 Sur 20 Sur 0 -- -- 47
2020-05-22 12:00:00 24.4 5 Este 12 Este 0 -- -- 49
2020-05-22 11:00:00 21.5 2 Oeste 6 Sudeste 0 -- -- 57
2020-05-22 10:00:00 19.4 2 Sudeste 6 Este 0 -- -- 59
2020-05-22 09:00:00 14.8 0 Calma 5 Este 0 -- -- 78
2020-05-22 08:00:00 11.1 0 Calma 3 Este 0 -- -- 86
2020-05-22 07:00:00 9.1 0 Calma 3 Este 0 -- -- 86
2020-05-22 06:00:00 9.7 2 Sudeste 5 Sudeste 0 -- -- 83
2020-05-22 05:00:00 10.2 3 Este 6 Sudoeste 0 -- -- 81
2020-05-22 04:00:00 10.7 4 Oeste 12 Oeste 0 -- -- 82
2020-05-22 03:00:00 11.7 2 Noroeste 4 Sudeste 0 -- -- 76
2020-05-22 02:00:00 12.6 3 Sudeste 4 Sudeste 0 -- -- 73
2020-05-22 01:00:00 13.4 2 Sudeste 6 Este 0 -- -- 69
2020-05-22 00:00:00 15.5 0 Calma 3 Noroeste 0 -- -- 62
2020-05-21 23:00:00 17.5 0 Calma 7 Oeste 0 -- -- 55
2020-05-21 22:00:00 20.2 4 Oeste 6 Oeste 0 -- -- 46
2020-05-21 21:00:00 25.2 3 Oeste 13 Norte 0 -- -- 33
2020-05-21 20:00:00 26 9 Noroeste 20 Noroeste 0 -- -- 33
2020-05-21 19:00:00 26.5 11 Norte 18 Oeste 0 -- -- 31
2020-05-21 18:00:00 27.1 6 Oeste 18 Noroeste 0 -- -- 29
2020-05-21 17:00:00 26.7 8 Noroeste 19 Oeste 0 -- -- 30
2020-05-21 16:00:00 26 14 Oeste 21 Oeste 0 -- -- 33
2020-05-21 15:00:00 25.4 12 Oeste 19 Oeste 0 -- -- 33
2020-05-21 14:00:00 24.8 10 Sur 20 Oeste 0 -- -- 39
2020-05-21 13:00:00 23.6 6 Sudoeste 16 Sudeste 0 -- -- 40
2020-05-21 12:00:00 22.7 4 Nordeste 9 Este 0 -- -- 45
2020-05-21 11:00:00 20.7 5 Sudeste 10 Sudeste 0 -- -- 49
2020-05-21 10:00:00 17 2 Este 6 Este 0 -- -- 65
2020-05-21 09:00:00 12.4 0 Calma 6 Este 0 -- -- 79
2020-05-21 08:00:00 8.7 2 Oeste 6 Sudeste 0 -- -- 86
2020-05-21 07:00:00 7.6 2 Sur 8 Oeste 0 -- -- 88
2020-05-21 06:00:00 7.5 4 Oeste 5 Oeste 0 -- -- 88
2020-05-21 05:00:00 8.3 5 Oeste 8 Sudeste 0 -- -- 84
2020-05-21 04:00:00 9.3 3 Sudeste 4 Oeste 0 -- -- 79
2020-05-21 03:00:00 10 2 Noroeste 4 Oeste 0 -- -- 76
2020-05-21 02:00:00 11.3 0 Calma 7 Sudeste 0 -- -- 71
2020-05-21 01:00:00 12.3 8 Sudeste 10 Este 0 -- -- 67
2020-05-21 00:00:00 14.7 2 Oeste 5 Oeste 0 -- -- 57
2020-05-20 23:00:00 18 3 Oeste 13 Nordeste 0 -- -- 42
2020-05-20 22:00:00 18.6 6 Este 12 Este 0 -- -- 43
2020-05-20 21:00:00 22.6 8 Oeste 18 Noroeste 0 -- -- 35
2020-05-20 20:00:00 25.2 10 Noroeste 15 Noroeste 0 -- -- 28
2020-05-20 19:00:00 25.9 4 Noroeste 17 Noroeste 0 -- -- 25
2020-05-20 18:00:00 25.3 4 Nordeste 17 Noroeste 0 -- -- 30
2020-05-20 17:00:00 25.2 9 Norte 19 Norte 0 -- -- 29
2020-05-20 16:00:00 24.4 10 Norte 19 Norte 0 -- -- 26
2020-05-20 15:00:00 23.8 9 Norte 19 Nordeste 0 -- -- 32
2020-05-20 14:00:00 22.9 10 Norte 23 Norte 0 -- -- 30
2020-05-20 13:00:00 21.9 5 Noroeste 17 Noroeste 0 -- -- 40
2020-05-20 12:00:00 20.8 5 Nordeste 14 Norte 0 -- -- 48
2020-05-20 11:00:00 18.7 5 Norte 10 Nordeste 0 -- -- 55
2020-05-20 10:00:00 16.2 3 Este 6 Sur 0 -- -- 69
2020-05-20 09:00:00 10.4 5 Sudeste 6 Sudeste 0 -- -- 82
2020-05-20 08:00:00 6.7 0 Calma 5 Sur 0 -- -- 92
2020-05-20 07:00:00 4.6 2 Este 6 Este 0 -- -- 90
2020-05-20 06:00:00 5.4 0 Calma 4 Oeste 0 -- -- 90
2020-05-20 05:00:00 6.2 3 Sudeste 5 Sudeste 0 -- -- 89
2020-05-20 04:00:00 7.6 3 Sudeste 8 Sudeste 0 -- -- 84
2020-05-20 03:00:00 8 3 Norte 5 Oeste 0 -- -- 84
2020-05-20 02:00:00 9.4 0 Calma 5 Sudeste 0 -- -- 79
2020-05-20 01:00:00 10.7 3 Este 5 Este 0 -- -- 74
2020-05-20 00:00:00 13.5 0 Calma 6 Oeste 0 -- -- 63
2020-05-19 23:00:00 15.1 2 Sudeste 9 Sur 0 -- -- 56
2020-05-19 22:00:00 17.7 4 Sudeste 17 Sudeste 0 -- -- 51
2020-05-19 21:00:00 19.7 7 Sudeste 28 Oeste 0 -- -- 41
2020-05-19 20:00:00 22.3 19 Noroeste 31 Noroeste 0 -- -- 47
2020-05-19 19:00:00 23.6 21 Noroeste 30 Noroeste 0 -- -- 41
2020-05-19 18:00:00 21.8 16 Oeste 26 Oeste 0 -- -- 45
2020-05-19 17:00:00 20.7 17 Oeste 28 Oeste 0 -- -- 51
2020-05-19 16:00:00 21.3 14 Noroeste 29 Noroeste 0 -- -- 45
2020-05-19 15:00:00 21.2 15 Noroeste 23 Noroeste 0 -- -- 45
2020-05-19 14:00:00 20.4 10 Norte 24 Noroeste 0 -- -- 47
2020-05-19 13:00:00 19.4 13 Norte 25 Norte 0 -- -- 47
2020-05-19 12:00:00 18.7 10 Norte 21 Norte 0 -- -- 47
2020-05-19 11:00:00 16.8 9 Norte 17 Norte 0 -- -- 49
2020-05-19 10:00:00 13.8 8 Norte 12 Norte 0 -- -- 74
2020-05-19 09:00:00 9.8 3 Norte 6 Norte 0 -- -- 91
2020-05-19 08:00:00 5.5 3 Oeste 6 Oeste 0 -- -- 95
2020-05-19 07:00:00 4.8 2 Sudeste 4 Este 0 -- -- 93
2020-05-19 06:00:00 5.2 0 Calma 6 Oeste 0 -- -- 93
2020-05-19 05:00:00 5.8 0 Calma 12 Este 0 -- -- 92
2020-05-19 04:00:00 6.8 3 Sudeste 8 Oeste 0 -- -- 89
2020-05-19 03:00:00 7.9 4 Sudeste 8 Sudeste 0 -- -- 89
2020-05-19 02:00:00 8.9 3 Sudoeste 7 Oeste 0 -- -- 83
2020-05-19 01:00:00 10.3 3 Sur 11 Este 0 -- -- 78
2020-05-19 00:00:00 11.4 0 Calma 5 Oeste 0 -- -- 75
2020-05-18 23:00:00 13.5 2 Oeste 8 Este 0 -- -- 67
2020-05-18 22:00:00 16.2 0 Calma 15 Este 0 -- -- 54
2020-05-18 21:00:00 18.2 14 Nordeste 35 Nordeste 0 -- -- 51
2020-05-18 20:00:00 21.9 18 Oeste 30 Noroeste 0 -- -- 39
2020-05-18 19:00:00 22.3 19 Noroeste 34 Oeste 0 -- -- 39
2020-05-18 18:00:00 22.5 16 Noroeste 25 Noroeste 0 -- -- 44
2020-05-18 17:00:00 22.1 9 Noroeste 28 Noroeste 0 -- -- 43
2020-05-18 16:00:00 21.4 13 Noroeste 27 Noroeste 0 -- -- 42
2020-05-18 15:00:00 20.2 10 Norte 24 Noroeste 0 -- -- 48
2020-05-18 14:00:00 19.5 9 Norte 22 Norte 0 -- -- 45
2020-05-18 13:00:00 18.3 10 Norte 25 Nordeste 0 -- -- 48
2020-05-18 12:00:00 16.8 15 Noroeste 23 Norte 0 -- -- 48
2020-05-18 11:00:00 15 12 Norte 20 Noroeste 0 -- -- 62
2020-05-18 10:00:00 12.4 9 Norte 14 Nordeste 0 -- -- 76
2020-05-18 09:00:00 9.2 4 Norte 7 Norte 0 -- -- 90
2020-05-18 08:00:00 5.5 3 Oeste 6 Oeste 0 -- -- 94
2020-05-18 07:00:00 3.7 3 Oeste 5 Oeste 0 -- -- 94
2020-05-18 06:00:00 4.3 0 Calma 4 Oeste 0 -- -- 94
2020-05-18 05:00:00 5.1 0 Calma 3 Este 0 -- -- 92
2020-05-18 04:00:00 5.8 2 Oeste 4 Oeste 0 -- -- 91
2020-05-18 03:00:00 6.9 0 Calma 4 Este 0 -- -- 88
2020-05-18 02:00:00 7.8 0 Calma 5 Sudeste 0 -- -- 85
2020-05-18 01:00:00 9.2 5 Sudeste 6 Sudeste 0 -- -- 79
2020-05-18 00:00:00 12 3 Este 12 Sudeste 0 -- -- 68
2020-05-17 23:00:00 13.5 5 Sudeste 17 Nordeste 0 -- -- 64
2020-05-17 22:00:00 15.1 14 Nordeste 24 Norte 0 -- -- 54
2020-05-17 21:00:00 17 10 Noroeste 22 Noroeste 0 -- -- 51
2020-05-17 20:00:00 18.7 12 Noroeste 26 Noroeste 0 -- -- 46
2020-05-17 19:00:00 19.2 11 Norte 22 Norte 0 -- -- 48
2020-05-17 18:00:00 19 4 Noroeste 26 Norte 0 -- -- 40
2020-05-17 17:00:00 18 9 Nordeste 21 Nordeste 0 -- -- 42
2020-05-17 16:00:00 17.3 6 Nordeste 19 Norte 0 -- -- 43
2020-05-17 15:00:00 16.3 10 Noroeste 18 Nordeste 0 -- -- 51
2020-05-17 14:00:00 15.8 8 Nordeste 29 Este 0 -- -- 57
2020-05-17 13:00:00 14.6 10 Norte 21 Nordeste 0 -- -- 58
2020-05-17 12:00:00 13.7 13 Nordeste 24 Norte 0 -- -- 63
2020-05-17 11:00:00 12.1 13 Nordeste 20 Nordeste 0 -- -- 67
2020-05-17 10:00:00 10.3 10 Nordeste 18 Nordeste 0 -- -- 72
2020-05-17 09:00:00 7.7 2 Norte 6 Nordeste 0 -- -- 86
2020-05-17 08:00:00 4.8 0 Calma 5 Norte 0 -- -- 94
2020-05-17 07:00:00 3.6 2 Noroeste 5 Oeste 0 -- -- 93
2020-05-17 06:00:00 4.1 2 Oeste 6 Oeste 0 -- -- 92
2020-05-17 05:00:00 4.5 5 Oeste 9 Oeste 0 -- -- 91
2020-05-17 04:00:00 5.1 4 Oeste 8 Oeste 0 -- -- 89
2020-05-17 03:00:00 7.1 2 Este 5 Norte 0 -- -- 84
2020-05-17 02:00:00 8 0 Calma 8 Nordeste 0 -- -- 80
2020-05-17 01:00:00 8 5 Nordeste 15 Nordeste 0 -- -- 80
2020-05-17 00:00:00 8.1 3 Este 12 Nordeste 0 -- -- 78
2020-05-16 23:00:00 9.5 9 Nordeste 19 Nordeste 0 -- -- 73
2020-05-16 22:00:00 10.1 9 Nordeste 32 Nordeste 0 -- -- 74
2020-05-16 21:00:00 11 16 Nordeste 30 Nordeste 0 -- -- 72
2020-05-16 20:00:00 12 21 Nordeste 30 Este 0 -- -- 68
2020-05-16 19:00:00 12.4 19 Este 27 Este 0 -- -- 68
2020-05-16 18:00:00 12.8 12 Nordeste 22 Este 0 -- -- 70
2020-05-16 17:00:00 12.7 13 Nordeste 24 Este 0 -- -- 69
2020-05-16 16:00:00 12.6 19 Este 27 Nordeste 0 -- -- 71
2020-05-16 15:00:00 12.2 19 Este 26 Este 0 -- -- 74
2020-05-16 14:00:00 11.3 18 Este 30 Nordeste 0 -- -- 75
2020-05-16 13:00:00 10.6 17 Nordeste 27 Nordeste 0 -- -- 80
2020-05-16 12:00:00 9.8 14 Nordeste 28 Nordeste 0 -- -- 82
2020-05-16 11:00:00 10.1 22 Nordeste 32 Este 0 -- -- 81
2020-05-16 10:00:00 9 18 Nordeste 30 Nordeste 0 -- -- 83
2020-05-16 09:00:00 7.8 8 Este 18 Este 0 -- -- 85
2020-05-16 08:00:00 7.3 5 Este 10 Este 0 -- -- 88
2020-05-16 07:00:00 7.1 4 Este 18 Nordeste 0 -- -- 89
2020-05-16 06:00:00 7.1 9 Nordeste 15 Nordeste 0.2 -- -- 91
2020-05-16 05:00:00 7.2 4 Nordeste 15 Nordeste 0 -- -- 92
2020-05-16 04:00:00 7.5 5 Norte 11 Norte 0 -- -- 89
2020-05-16 03:00:00 7.6 2 Nordeste 11 Este 0 -- -- 89
2020-05-16 02:00:00 7.6 3 Este 15 Este 0 -- -- 89
2020-05-16 01:00:00 7.9 6 Nordeste 24 Este 0 -- -- 89
2020-05-16 00:00:00 8.3 18 Este 36 Este 0 -- -- 88
2020-05-15 23:00:00 8.5 23 Este 33 Este 0 -- -- 87
2020-05-15 22:00:00 8.9 19 Este 35 Nordeste 0 -- -- 88
2020-05-15 21:00:00 9.5 26 Este 37 Este 0 -- -- 87
2020-05-15 20:00:00 9.7 28 Este 42 Este 0 -- -- 89
2020-05-15 19:00:00 11.8 27 Este 39 Este 0 -- -- 78
2020-05-15 18:00:00 11.8 31 Este 42 Nordeste 0 -- -- 79
2020-05-15 17:00:00 12.9 23 Este 39 Este 0 -- -- 76
2020-05-15 16:00:00 12.2 24 Este 40 Este 0 -- -- 83
2020-05-15 15:00:00 11.5 17 Este 33 Este 0 -- -- 80
2020-05-15 14:00:00 12.1 22 Este 30 Este 0 -- -- 76
2020-05-15 13:00:00 11.8 12 Este 22 Este 0 -- -- 77
2020-05-15 12:00:00 9.9 15 Este 20 Este 0 -- -- 85
2020-05-15 11:00:00 9.6 12 Este 22 Nordeste 0 -- -- 87
2020-05-15 10:00:00 8.4 7 Este 14 Este 0.4 -- -- 94
2020-05-15 09:00:00 7.9 5 Este 22 Este 0 -- -- 96
2020-05-15 08:00:00 8.3 3 Este 5 Este 0 -- -- 98
2020-05-15 07:00:00 7.9 0 Calma 2 Norte 0 -- -- 97
2020-05-15 06:00:00 7.9 0 Calma 4 Este 0 -- -- 97
2020-05-15 05:00:00 8.1 0 Calma 4 Sur 0 -- -- 96
2020-05-15 04:00:00 8 0 Calma 5 Noroeste 0 -- -- 96
2020-05-15 03:00:00 8.1 4 Oeste 12 Sudoeste 0 -- -- 95
2020-05-15 02:00:00 8.4 2 Sudoeste 6 Sudoeste 0 -- -- 96
2020-05-15 01:00:00 8.5 4 Sudoeste 12 Sudoeste 0.4 -- -- 96
2020-05-15 00:00:00 8.6 3 Sudoeste 12 Sudoeste 0.2 -- -- 96
2020-05-14 23:00:00 8.6 8 Sudoeste 14 Sudoeste 0.2 -- -- 95
2020-05-14 22:00:00 8.9 8 Sudoeste 13 Sudoeste 0.2 -- -- 94
2020-05-14 21:00:00 9.4 0 Calma 12 Oeste 0.2 -- -- 94
2020-05-14 20:00:00 9.5 8 Noroeste 17 Noroeste 0 -- -- 92
2020-05-14 19:00:00 9.6 12 Noroeste 19 Noroeste 0.6 -- -- 93
2020-05-14 18:00:00 9.3 13 Noroeste 26 Noroeste 1 -- -- 94
2020-05-14 17:00:00 9 21 Noroeste 31 Noroeste 1.2 -- -- 93
2020-05-14 16:00:00 8.8 23 Noroeste 32 Noroeste 3.4 -- -- 94
2020-05-14 15:00:00 9.2 11 Noroeste 22 Noroeste 1 -- -- 91
2020-05-14 14:00:00 10.6 12 Sudoeste 21 Sudoeste 0 -- -- 82
2020-05-14 13:00:00 11 16 Sudoeste 26 Sudoeste 0 -- -- 82
2020-05-14 12:00:00 10.4 12 Sudoeste 18 Sudoeste 0 -- -- 86
2020-05-14 11:00:00 9.4 13 Sur 18 Sur 0 -- -- 94
2020-05-14 10:00:00 9.4 10 Sudeste 21 Sudeste 0 -- -- 96
2020-05-14 09:00:00 8.1 0 Calma 5 Nordeste 0 -- -- 98
2020-05-14 08:00:00 7 3 Noroeste 5 Noroeste 0 -- -- 97
2020-05-14 07:00:00 6.9 4 Sudeste 6 Sudeste 0 -- -- 97
2020-05-14 06:00:00 6.6 4 Sudeste 9 Sudeste 0 -- -- 96
2020-05-14 05:00:00 6.9 7 Sudeste 12 Sudeste 0 -- -- 95
2020-05-14 04:00:00 7.1 2 Sudoeste 9 Sudeste 0.2 -- -- 94
2020-05-14 03:00:00 7.6 2 Este 9 Este 0 -- -- 93
2020-05-14 02:00:00 8.7 4 Este 17 Sur 0 -- -- 89
2020-05-14 01:00:00 9.8 14 Sur 21 Sur 0 -- -- 87
2020-05-14 00:00:00 9.2 8 Sudeste 11 Sur 0 -- -- 91
2020-05-13 23:00:00 10.1 11 Sur 16 Sudeste 0 -- -- 90
2020-05-13 22:00:00 10.8 13 Sur 17 Sur 0 -- -- 84
2020-05-13 21:00:00 12.1 8 Sudoeste 19 Sudoeste 0 -- -- 80
2020-05-13 20:00:00 12.6 4 Sudoeste 9 Sudoeste 0 -- -- 75
2020-05-13 19:00:00 12.4 0 Calma 9 Sudoeste 0 -- -- 86
2020-05-13 18:00:00 11.8 8 Sudoeste 32 Sudoeste 0.6 -- -- 84
2020-05-13 17:00:00 13.9 3 Norte 14 Sudoeste 0 -- -- 68
2020-05-13 16:00:00 13.1 8 Sur 20 Sudoeste 0 -- -- 74
2020-05-13 15:00:00 12.3 14 Sudoeste 23 Sudoeste 0 -- -- 78
2020-05-13 14:00:00 11 17 Sudoeste 22 Sudoeste 0 -- -- 80
2020-05-13 13:00:00 12 13 Oeste 27 Oeste 0 -- -- 74
2020-05-13 12:00:00 11.3 19 Oeste 27 Oeste 0 -- -- 80
2020-05-13 11:00:00 9.3 10 Noroeste 17 Noroeste 0 -- -- 88
2020-05-13 10:00:00 8.9 12 Noroeste 21 Noroeste 0 -- -- 88
2020-05-13 09:00:00 8.5 11 Oeste 20 Oeste 0 -- -- 90
2020-05-13 08:00:00 7.7 12 Sudoeste 22 Sudoeste 0 -- -- 93
2020-05-13 07:00:00 7.2 16 Sudoeste 27 Sudoeste 0 -- -- 93
2020-05-13 06:00:00 7.2 16 Sudoeste 22 Sudoeste 0 -- -- 93
2020-05-13 05:00:00 7 11 Sudoeste 15 Sudoeste 0 -- -- 94
2020-05-13 04:00:00 7.1 5 Oeste 11 Sudoeste 0 -- -- 93
2020-05-13 03:00:00 7 14 Sudoeste 22 Sudoeste 0 -- -- 92
2020-05-13 02:00:00 7 12 Sudoeste 18 Sudoeste 0 -- -- 92
2020-05-13 01:00:00 7.4 9 Sudoeste 25 Sudoeste 0.2 -- -- 91
2020-05-13 00:00:00 7.5 19 Sudoeste 27 Sudoeste 0.2 -- -- 91
2020-05-12 23:00:00 8.2 4 Este 13 Sudoeste 2.6 -- -- 95
2020-05-12 22:00:00 8.5 8 Sudoeste 16 Sudeste 4 -- -- 94
2020-05-12 21:00:00 9.1 9 Sudeste 17 Sudeste 2.2 -- -- 93
2020-05-12 20:00:00 9.7 4 Sur 13 Sudoeste 1 -- -- 93
2020-05-12 19:00:00 9.9 9 Sudoeste 16 Sudeste 0.4 -- -- 91
2020-05-12 18:00:00 10.7 8 Sudeste 22 Sur 0.6 -- -- 91
2020-05-12 17:00:00 10 18 Sur 57 Este 1.4 -- -- 93
2020-05-12 16:00:00 14.2 10 Sur 16 Sudeste 0 -- -- 71
2020-05-12 15:00:00 13.5 9 Sudoeste 17 Sur 0 -- -- 75
2020-05-12 14:00:00 13.8 10 Sudeste 18 Sudeste 0 -- -- 76
2020-05-12 13:00:00 13 9 Sudeste 18 Sudeste 0 -- -- 79
2020-05-12 12:00:00 12.7 7 Sudeste 19 Sudeste 0 -- -- 83
2020-05-12 11:00:00 11.2 5 Sudeste 10 Este 0 -- -- 88
2020-05-12 10:00:00 10.6 5 Sudeste 16 Sur 0 -- -- 92
2020-05-12 09:00:00 9.7 4 Sur 13 Sudoeste 0 -- -- 96
2020-05-12 08:00:00 9 9 Sur 27 Sudoeste 0 -- -- 97
2020-05-12 07:00:00 8.4 23 Sudoeste 31 Sur 0 -- -- 97
2020-05-12 06:00:00 5.6 3 Sudeste 5 Sur 0 -- -- 96
2020-05-12 05:00:00 6.8 2 Este 4 Sudeste 0 -- -- 95
2020-05-12 04:00:00 6.8 3 Este 8 Oeste 0 -- -- 95
2020-05-12 03:00:00 7.8 2 Sur 6 Sudeste 0 -- -- 94
2020-05-12 02:00:00 8.3 2 Sudoeste 13 Este 0 -- -- 91
2020-05-12 01:00:00 9.2 5 Sudoeste 22 Sudoeste 0 -- -- 89
2020-05-12 00:00:00 9.5 3 Sudeste 22 Sudoeste 0 -- -- 89
2020-05-11 23:00:00 10.1 6 Sudoeste 17 Sudoeste 0 -- -- 90
2020-05-11 22:00:00 10.8 6 Oeste 22 Sudoeste 0 -- -- 87
2020-05-11 21:00:00 11.5 18 Sudoeste 24 Sudoeste 0 -- -- 81
2020-05-11 20:00:00 11.8 13 Sudoeste 19 Oeste 1 -- -- 81
2020-05-11 19:00:00 9.9 14 Oeste 28 Oeste 1.2 -- -- 91
2020-05-11 18:00:00 11.3 3 Sudoeste 10 Norte 0 -- -- 84
2020-05-11 17:00:00 10.3 11 Noroeste 21 Oeste 1.8 -- -- 89
2020-05-11 16:00:00 11.3 12 Oeste 29 Oeste 1.6 -- -- 83
2020-05-11 15:00:00 11.5 11 Oeste 38 Sudoeste 1 -- -- 85
2020-05-11 14:00:00 14.7 18 Oeste 44 Noroeste 0 -- -- 58
2020-05-11 13:00:00 14.8 32 Noroeste 44 Noroeste 0 -- -- 54
2020-05-11 12:00:00 14 30 Noroeste 46 Noroeste 0 -- -- 57
2020-05-11 11:00:00 13 26 Noroeste 39 Noroeste 0 -- -- 66
2020-05-11 10:00:00 12.3 30 Oeste 38 Oeste 0 -- -- 64
2020-05-11 09:00:00 10.1 13 Oeste 24 Oeste 0 -- -- 77
2020-05-11 08:00:00 9.6 14 Oeste 46 Oeste 0 -- -- 78
2020-05-11 07:00:00 9.7 30 Oeste 44 Oeste 0 -- -- 79
2020-05-11 06:00:00 9.3 22 Oeste 35 Oeste 0 -- -- 79
2020-05-11 05:00:00 9 21 Oeste 33 Oeste 0 -- -- 82
2020-05-11 04:00:00 9.5 23 Oeste 37 Oeste 0 -- -- 78
2020-05-11 03:00:00 10.2 23 Oeste 40 Oeste 0 -- -- 76
2020-05-11 02:00:00 10.5 28 Oeste 40 Oeste 0 -- -- 76
2020-05-11 01:00:00 10.6 16 Noroeste 25 Noroeste 0 -- -- 82
2020-05-11 00:00:00 10.9 19 Noroeste 26 Noroeste 0 -- -- 76
2020-05-10 23:00:00 11.5 12 Noroeste 31 Oeste 0 -- -- 67
2020-05-10 22:00:00 11.7 20 Oeste 32 Oeste 0 -- -- 57
2020-05-10 21:00:00 12.7 24 Oeste 43 Noroeste 0 -- -- 50
2020-05-10 20:00:00 14.2 31 Noroeste 46 Oeste 0 -- -- 50
2020-05-10 19:00:00 15 32 Noroeste 51 Oeste 0 -- -- 48
2020-05-10 18:00:00 14.5 31 Noroeste 45 Oeste 0 -- -- 50
2020-05-10 17:00:00 14.6 33 Noroeste 50 Noroeste 0 -- -- 49
2020-05-10 16:00:00 13.6 34 Noroeste 50 Oeste 0 -- -- 54
2020-05-10 15:00:00 12.6 29 Noroeste 42 Noroeste 0 -- -- 63
2020-05-10 14:00:00 11.2 33 Noroeste 51 Noroeste 0 -- -- 69
2020-05-10 13:00:00 12.2 32 Noroeste 49 Oeste 0 -- -- 68
2020-05-10 12:00:00 11.2 28 Noroeste 46 Oeste 0 -- -- 73
2020-05-10 11:00:00 11.1 30 Oeste 41 Noroeste 0 -- -- 76
2020-05-10 10:00:00 9.2 24 Oeste 33 Oeste 0 -- -- 82
2020-05-10 09:00:00 8.4 24 Oeste 33 Oeste 0 -- -- 89
2020-05-10 08:00:00 8.6 15 Noroeste 27 Noroeste 0.4 -- -- 91
2020-05-10 07:00:00 9 18 Noroeste 27 Noroeste 0 -- -- 90
2020-05-10 06:00:00 9.8 8 Noroeste 17 Oeste 0.2 -- -- 90
2020-05-10 05:00:00 10.5 3 Este 14 Sudoeste 0 -- -- 81
2020-05-10 04:00:00 10.3 4 Sur 6 Nordeste 0 -- -- 81
2020-05-10 03:00:00 10.4 2 Sudoeste 17 Sur 0 -- -- 78
2020-05-10 02:00:00 9.9 5 Sudeste 8 Sudeste 0 -- -- 80
2020-05-10 01:00:00 11.5 3 Sudoeste 15 Oeste 0 -- -- 71
2020-05-10 00:00:00 12.4 4 Oeste 11 Sur 0 -- -- 66
2020-05-09 23:00:00 13.5 3 Noroeste 18 Sudoeste 0 -- -- 61
2020-05-09 22:00:00 15.5 17 Sudoeste 28 Sudoeste 0 -- -- 52
2020-05-09 21:00:00 17.1 19 Sudoeste 31 Sudoeste 0 -- -- 47
2020-05-09 20:00:00 18.5 21 Sudoeste 37 Sudoeste 0 -- -- 45
2020-05-09 19:00:00 19.1 31 Sudoeste 42 Sudoeste 0 -- -- 42
2020-05-09 18:00:00 19.5 25 Sudoeste 48 Sudoeste 0 -- -- 44
2020-05-09 17:00:00 19.3 29 Sudoeste 45 Sudoeste 0 -- -- 47
2020-05-09 16:00:00 19 27 Sudoeste 51 Sudoeste 0 -- -- 50
2020-05-09 15:00:00 17.7 31 Sudoeste 43 Sudoeste 0 -- -- 45
2020-05-09 14:00:00 18.9 25 Sudoeste 39 Sudoeste 0 -- -- 57
2020-05-09 13:00:00 17.7 20 Sudoeste 33 Sudoeste 0 -- -- 62
2020-05-09 12:00:00 15.9 22 Sudoeste 37 Sur 0 -- -- 72
2020-05-09 11:00:00 14.6 17 Sudoeste 27 Sudoeste 0 -- -- 80
2020-05-09 10:00:00 14.1 14 Sur 31 Sudoeste 0 -- -- 84
2020-05-09 09:00:00 13.7 14 Sur 23 Sur 0 -- -- 85
2020-05-09 08:00:00 12.3 16 Sur 28 Sur 0 -- -- 88
2020-05-09 07:00:00 12.1 22 Sur 32 Sur 0 -- -- 85
2020-05-09 06:00:00 12.4 26 Sudoeste 34 Sudoeste 0 -- -- 85
2020-05-09 05:00:00 13.3 15 Sudoeste 24 Sur 0 -- -- 83
2020-05-09 04:00:00 12.7 4 Este 17 Sur 0 -- -- 84
2020-05-09 03:00:00 12.3 6 Sudeste 15 Sudoeste 0 -- -- 86
2020-05-09 02:00:00 13.3 14 Sur 23 Sur 0 -- -- 83
2020-05-09 01:00:00 11.7 14 Sudeste 48 Sur 3.4 -- -- 88
2020-05-09 00:00:00 14.9 8 Sudeste 18 Sudeste 0 -- -- 69
2020-05-08 23:00:00 15.9 14 Sudeste 18 Sudeste 0 -- -- 66
2020-05-08 22:00:00 18.1 5 Norte 19 Sudoeste 0 -- -- 58
2020-05-08 21:00:00 20.3 11 Sudoeste 28 Sudoeste 0 -- -- 52
2020-05-08 20:00:00 22.4 22 Sudoeste 33 Sudoeste 0 -- -- 46
2020-05-08 19:00:00 23.2 21 Sudoeste 35 Sudoeste 0 -- -- 43
2020-05-08 18:00:00 23.9 22 Sudoeste 35 Sudoeste 0 -- -- 41
2020-05-08 17:00:00 23.5 20 Sur 28 Sur 0 -- -- 45
2020-05-08 16:00:00 22.6 15 Sur 31 Sudeste 0 -- -- 46
2020-05-08 15:00:00 22.4 7 Sudeste 31 Este 0 -- -- 49
2020-05-08 14:00:00 21.5 8 Sudeste 24 Este 0 -- -- 49
2020-05-08 13:00:00 19.8 10 Sudeste 25 Sudeste 0 -- -- 53
2020-05-08 12:00:00 18.6 17 Sudeste 26 Sudeste 0 -- -- 56
2020-05-08 11:00:00 17.2 23 Sur 30 Sur 0 -- -- 58
2020-05-08 10:00:00 15.7 18 Sur 25 Sur 0 -- -- 63
2020-05-08 09:00:00 13.8 4 Oeste 14 Sur 0 -- -- 71
2020-05-08 08:00:00 11.9 10 Sur 22 Sudeste 0 -- -- 76
2020-05-08 07:00:00 10.8 12 Sur 15 Sur 0 -- -- 81
2020-05-08 06:00:00 11.2 10 Sur 14 Sudoeste 0 -- -- 79
2020-05-08 05:00:00 10.7 6 Sudeste 13 Sur 0 -- -- 78
2020-05-08 04:00:00 12.3 9 Sudeste 20 Sur 0 -- -- 72
2020-05-08 03:00:00 13 10 Sur 17 Sur 0 -- -- 69
2020-05-08 02:00:00 14.1 10 Sur 26 Sur 0 -- -- 65
2020-05-08 01:00:00 15.3 21 Sur 32 Sur 0 -- -- 62
2020-05-08 00:00:00 15.9 17 Sur 33 Sudoeste 0 -- -- 62
2020-05-07 23:00:00 17 23 Sudoeste 31 Sur 0 -- -- 61
2020-05-07 22:00:00 18 9 Sur 15 Sur 0 -- -- 61
2020-05-07 21:00:00 19.4 9 Sur 18 Sudeste 0 -- -- 55
2020-05-07 20:00:00 20.6 12 Sudeste 22 Sudoeste 0 -- -- 53
2020-05-07 19:00:00 21.3 13 Sudoeste 33 Sudoeste 0 -- -- 49
2020-05-07 18:00:00 22.3 20 Sur 32 Sur 0 -- -- 47
2020-05-07 17:00:00 21.9 20 Sur 35 Sur 0 -- -- 46
2020-05-07 16:00:00 23 21 Sudoeste 36 Sur 0 -- -- 44
2020-05-07 15:00:00 24.1 22 Sur 35 Sur 0 -- -- 42
2020-05-07 14:00:00 23.5 21 Sur 37 Sur 0 -- -- 45
2020-05-07 13:00:00 22.8 21 Sur 31 Sudeste 0 -- -- 48
2020-05-07 12:00:00 20.8 11 Sudeste 27 Sudeste 0 -- -- 56
2020-05-07 11:00:00 19.3 13 Sudeste 23 Sudeste 0 -- -- 58
2020-05-07 10:00:00 16.5 13 Sudeste 20 Sudeste 0 -- -- 70
2020-05-07 09:00:00 14.1 13 Sudeste 18 Sudeste 0 -- -- 70
2020-05-07 08:00:00 10.9 3 Este 13 Este 0 -- -- 83
2020-05-07 07:00:00 9.3 7 Este 13 Sudeste 0 -- -- 79
2020-05-07 06:00:00 8.6 9 Este 12 Este 0 -- -- 82
2020-05-07 05:00:00 8.4 0 Calma 6 Sudeste 0 -- -- 82
2020-05-07 04:00:00 8.9 2 Oeste 5 Oeste 0 -- -- 79
2020-05-07 03:00:00 10 4 Sudeste 6 Sur 0 -- -- 73
2020-05-07 02:00:00 11 2 Sudeste 8 Este 0 -- -- 70
2020-05-07 01:00:00 11.7 7 Este 14 Sudeste 0 -- -- 69
2020-05-07 00:00:00 12.2 3 Norte 9 Sudeste 0 -- -- 69
2020-05-06 23:00:00 14.9 2 Sudeste 6 Sudeste 0 -- -- 59
2020-05-06 22:00:00 17.1 0 Calma 10 Sur 0 -- -- 51
2020-05-06 21:00:00 20 5 Sudeste 12 Sudoeste 0 -- -- 42
2020-05-06 20:00:00 22.2 9 Sudoeste 17 Sudoeste 0 -- -- 34
2020-05-06 19:00:00 22.2 9 Sudeste 14 Sudeste 0 -- -- 34
2020-05-06 18:00:00 22.4 7 Sudeste 16 Este 0 -- -- 31
2020-05-06 17:00:00 22 3 Nordeste 12 Norte 0 -- -- 35
2020-05-06 16:00:00 21.1 7 Este 17 Nordeste 0 -- -- 40
2020-05-06 15:00:00 20.2 10 Este 18 Este 0 -- -- 39
2020-05-06 14:00:00 19.1 7 Noroeste 18 Sudeste 0 -- -- 40
2020-05-06 13:00:00 18.5 7 Este 13 Sudeste 0 -- -- 42
2020-05-06 12:00:00 17.8 7 Nordeste 18 Nordeste 0 -- -- 50
2020-05-06 11:00:00 16.4 9 Norte 17 Nordeste 0 -- -- 56
2020-05-06 10:00:00 13.3 4 Norte 8 Norte 0 -- -- 72
2020-05-06 09:00:00 9.6 2 Este 4 Este 0 -- -- 80
2020-05-06 08:00:00 5.7 3 Sudeste 5 Sudeste 0 -- -- 90
2020-05-06 07:00:00 4.4 0 Calma 7 Este 0 -- -- 89
2020-05-06 06:00:00 4.9 4 Sudeste 6 Este 0 -- -- 85
2020-05-06 05:00:00 5.6 3 Sudeste 4 Sudeste 0 -- -- 82
2020-05-06 04:00:00 6.1 0 Calma 3 Este 0 -- -- 82
2020-05-06 03:00:00 7 0 Calma 4 Sudeste 0 -- -- 78
2020-05-06 02:00:00 8.2 3 Sudeste 5 Oeste 0 -- -- 75
2020-05-06 01:00:00 10.2 2 Oeste 6 Oeste 0 -- -- 67
2020-05-06 00:00:00 11.7 3 Oeste 10 Oeste 0 -- -- 60
2020-05-05 23:00:00 13.4 5 Oeste 15 Oeste 0 -- -- 55
2020-05-05 22:00:00 14.4 4 Sur 19 Oeste 0 -- -- 45
2020-05-05 21:00:00 16.7 9 Oeste 31 Sudoeste 0 -- -- 34
2020-05-05 20:00:00 18.5 23 Sudoeste 33 Sudoeste 0 -- -- 28
2020-05-05 19:00:00 20.5 22 Sudoeste 34 Sudoeste 0 -- -- 28
2020-05-05 18:00:00 20.8 25 Sudoeste 36 Sudoeste 0 -- -- 32
2020-05-05 17:00:00 20.6 20 Sur 36 Sudoeste 0 -- -- 40
2020-05-05 16:00:00 19.7 19 Sudoeste 33 Sudoeste 0 -- -- 40
2020-05-05 15:00:00 20.3 17 Sudoeste 30 Sudoeste 0 -- -- 39
2020-05-05 14:00:00 19.5 14 Sudoeste 30 Sudoeste 0 -- -- 41
2020-05-05 13:00:00 18.9 5 Nordeste 16 Nordeste 0 -- -- 56
2020-05-05 12:00:00 17.2 8 Norte 18 Nordeste 0 -- -- 62
2020-05-05 11:00:00 16.2 5 Norte 12 Norte 0 -- -- 66
2020-05-05 10:00:00 14.5 4 Nordeste 12 Nordeste 0 -- -- 70
2020-05-05 09:00:00 12.6 0 Calma 6 Nordeste 0 -- -- 76
2020-05-05 08:00:00 10.1 0 Calma 10 Oeste 0 -- -- 79
2020-05-05 07:00:00 9.4 5 Noroeste 14 Oeste 0 -- -- 82
2020-05-05 06:00:00 10.1 2 Noroeste 14 Oeste 0 -- -- 84
2020-05-05 05:00:00 10.8 8 Oeste 14 Oeste 0 -- -- 84
2020-05-05 04:00:00 11.7 10 Oeste 14 Oeste 0 -- -- 80
2020-05-05 03:00:00 13.3 7 Oeste 13 Sudoeste 0 -- -- 73
2020-05-05 02:00:00 14.3 2 Este 15 Oeste 0 -- -- 67
2020-05-05 01:00:00 14.8 10 Noroeste 20 Oeste 0 -- -- 65
2020-05-05 00:00:00 15.6 13 Oeste 31 Oeste 0 -- -- 67
2020-05-04 23:00:00 17.3 18 Noroeste 30 Oeste 0 -- -- 59
2020-05-04 22:00:00 21.2 14 Oeste 38 Sudoeste 0 -- -- 46
2020-05-04 21:00:00 22.6 26 Sudoeste 41 Sudoeste 0 -- -- 44
2020-05-04 20:00:00 24.6 25 Sudoeste 44 Sur 0 -- -- 43
2020-05-04 19:00:00 25.5 24 Sur 65 Sudeste 0 -- -- 36
2020-05-04 18:00:00 26.3 32 Sur 48 Sur 0 -- -- 36
2020-05-04 17:00:00 25.7 24 Sur 42 Sur 0 -- -- 37
2020-05-04 16:00:00 26.1 30 Sur 54 Sur 0 -- -- 34
2020-05-04 15:00:00 26 33 Sur 45 Sur 0 -- -- 36
2020-05-04 14:00:00 25 23 Sur 33 Sudoeste 0 -- -- 43
2020-05-04 13:00:00 24 22 Sur 37 Sur 0 -- -- 41
2020-05-04 12:00:00 23.5 17 Sur 29 Sur 0 -- -- 49
2020-05-04 11:00:00 20.7 18 Sudeste 28 Sur 0 -- -- 59
2020-05-04 10:00:00 20.3 15 Sur 22 Sur 0 -- -- 58
2020-05-04 09:00:00 17.4 9 Sur 27 Sur 0 -- -- 68
2020-05-04 08:00:00 14.6 15 Sur 24 Sudoeste 0 -- -- 76
2020-05-04 07:00:00 11.2 12 Este 15 Este 0 -- -- 84
2020-05-04 06:00:00 11.8 6 Este 17 Sudeste 0 -- -- 79
2020-05-04 05:00:00 11.7 8 Sudeste 18 Este 0 -- -- 81
2020-05-04 04:00:00 11.2 9 Este 15 Este 0 -- -- 81
2020-05-04 03:00:00 11.5 3 Sudeste 8 Este 0 -- -- 78
2020-05-04 02:00:00 11.9 4 Este 6 Este 0 -- -- 76
2020-05-04 01:00:00 14.1 0 Calma 4 Este 0 -- -- 68
2020-05-04 00:00:00 16.3 0 Calma 19 Sudoeste 0 -- -- 58
2020-05-03 23:00:00 18 20 Sudoeste 30 Sur 0 -- -- 53
2020-05-03 22:00:00 19.4 24 Sudoeste 32 Sudoeste 0 -- -- 49
2020-05-03 21:00:00 20.6 24 Sudoeste 31 Sudoeste 0 -- -- 46
2020-05-03 20:00:00 22.5 24 Sudoeste 35 Sudoeste 0 -- -- 42
2020-05-03 19:00:00 23.8 23 Sudoeste 35 Sudoeste 0 -- -- 37
2020-05-03 18:00:00 24.1 26 Sudoeste 37 Sudoeste 0 -- -- 32
2020-05-03 17:00:00 24 24 Sudoeste 34 Sudoeste 0 -- -- 35
2020-05-03 16:00:00 23.8 22 Sur 37 Sur 0 -- -- 38
2020-05-03 15:00:00 23.5 23 Sudoeste 32 Sudoeste 0 -- -- 30
2020-05-03 14:00:00 22.8 18 Sur 28 Sudoeste 0 -- -- 42
2020-05-03 13:00:00 21.8 10 Sudoeste 18 Sur 0 -- -- 46
2020-05-03 12:00:00 19.9 9 Sudoeste 17 Sudeste 0 -- -- 54
2020-05-03 11:00:00 18.6 13 Sudeste 18 Sudeste 0 -- -- 63
2020-05-03 10:00:00 15.1 4 Este 6 Este 0 -- -- 80
2020-05-03 09:00:00 10.2 2 Este 4 Este 0 -- -- 95
2020-05-03 08:00:00 7.4 0 Calma 3 Sudeste 0 -- -- 95
2020-05-03 07:00:00 6.7 0 Calma 3 Este 0 -- -- 94
2020-05-03 06:00:00 7.2 0 Calma 3 Este 0 -- -- 93
2020-05-03 05:00:00 7.7 0 Calma 4 Sudeste 0 -- -- 93
2020-05-03 04:00:00 8.1 0 Calma 4 Este 0 -- -- 92
2020-05-03 03:00:00 9.3 0 Calma 3 Oeste 0 -- -- 90
2020-05-03 02:00:00 9.9 4 Sudeste 8 Sudeste 0 -- -- 89
2020-05-03 01:00:00 10.9 4 Sudeste 4 Sudeste 0 -- -- 84
2020-05-03 00:00:00 12.1 3 Sudeste 5 Oeste 0 -- -- 80
2020-05-02 23:00:00 13.5 4 Oeste 10 Oeste 0 -- -- 76
2020-05-02 22:00:00 15.6 5 Oeste 19 Noroeste 0 -- -- 67
2020-05-02 21:00:00 17.4 12 Noroeste 22 Noroeste 0 -- -- 62
2020-05-02 20:00:00 19.8 17 Noroeste 26 Noroeste 0 -- -- 55
2020-05-02 19:00:00 21.3 19 Noroeste 41 Oeste 0 -- -- 51
2020-05-02 18:00:00 21.6 30 Noroeste 46 Noroeste 0 -- -- 48
2020-05-02 17:00:00 21.1 36 Noroeste 54 Noroeste 0 -- -- 45
2020-05-02 16:00:00 21.4 29 Noroeste 41 Oeste 0 -- -- 45
2020-05-02 15:00:00 19.3 6 Sur 24 Sudoeste 0 -- -- 65
2020-05-02 14:00:00 18.3 5 Oeste 19 Sudoeste 0 -- -- 68
2020-05-02 13:00:00 17.5 11 Sudoeste 21 Sudoeste 0 -- -- 70
2020-05-02 12:00:00 16 8 Noroeste 22 Noroeste 0 -- -- 73
2020-05-02 11:00:00 14.9 13 Noroeste 27 Noroeste 0 -- -- 75
2020-05-02 10:00:00 13.1 12 Noroeste 30 Oeste 0 -- -- 86
2020-05-02 09:00:00 10.5 2 Sudeste 6 Sudoeste 0 -- -- 94
2020-05-02 08:00:00 9.4 3 Sudeste 6 Oeste 0 -- -- 95
2020-05-02 07:00:00 9.9 2 Noroeste 9 Oeste 0 -- -- 92
2020-05-02 06:00:00 11 3 Sur 9 Oeste 0 -- -- 91
2020-05-02 05:00:00 11.4 7 Oeste 16 Oeste 0 -- -- 91
2020-05-02 04:00:00 11.5 4 Sudoeste 29 Oeste 0 -- -- 89
2020-05-02 03:00:00 12.5 22 Noroeste 38 Oeste 0 -- -- 87
2020-05-02 02:00:00 13.1 28 Noroeste 45 Oeste 0 -- -- 83
2020-05-02 01:00:00 13.7 33 Noroeste 49 Noroeste 0 -- -- 79
2020-05-02 00:00:00 14.3 30 Oeste 42 Oeste 0 -- -- 78
2020-05-01 23:00:00 14 19 Oeste 28 Oeste 0 -- -- 78
2020-05-01 22:00:00 14.8 18 Oeste 33 Oeste 0 -- -- 76
2020-05-01 21:00:00 16 22 Oeste 43 Oeste 0 -- -- 71
2020-05-01 20:00:00 17.2 30 Oeste 47 Oeste 0 -- -- 65
2020-05-01 19:00:00 17.6 31 Oeste 48 Oeste 0 -- -- 63
2020-05-01 18:00:00 18.3 36 Oeste 54 Oeste 0 -- -- 60
2020-05-01 17:00:00 18 32 Oeste 52 Oeste 0 -- -- 62
2020-05-01 16:00:00 17.4 38 Oeste 52 Oeste 0 -- -- 65
2020-05-01 15:00:00 16.3 34 Oeste 59 Oeste 0 -- -- 68
2020-05-01 14:00:00 15.5 37 Oeste 59 Oeste 0 -- -- 70
2020-05-01 13:00:00 15.1 45 Oeste 58 Oeste 0 -- -- 74
2020-05-01 12:00:00 14.7 36 Oeste 60 Oeste 0 -- -- 76
2020-05-01 11:00:00 13.4 37 Oeste 57 Oeste 0.2 -- -- 80
2020-05-01 10:00:00 10.5 26 Sudoeste 42 Sudoeste 0 -- -- 92
2020-05-01 09:00:00 9.5 30 Sudoeste 40 Sudoeste 0 -- -- 95
2020-05-01 08:00:00 9.1 22 Sudoeste 31 Sudoeste 0 -- -- 93
2020-05-01 07:00:00 9 14 Sudoeste 24 Sur 0 -- -- 91
2020-05-01 06:00:00 9.2 6 Oeste 14 Oeste 0 -- -- 89
2020-05-01 05:00:00 9.9 4 Norte 23 Oeste 0 -- -- 86
2020-05-01 04:00:00 10.1 10 Oeste 19 Sudoeste 0 -- -- 85
2020-05-01 03:00:00 10.7 12 Oeste 24 Oeste 0 -- -- 81
2020-05-01 02:00:00 10.8 15 Oeste 41 Oeste 0 -- -- 80
2020-05-01 01:00:00 12.2 33 Oeste 47 Oeste 0 -- -- 71
2020-05-01 00:00:00 12 31 Oeste 46 Oeste 0 -- -- 75
2020-04-30 23:00:00 11.9 15 Oeste 29 Oeste 0 -- -- 74
2020-04-30 22:00:00 11.8 17 Oeste 31 Oeste 0 -- -- 72
2020-04-30 21:00:00 12.3 17 Oeste 36 Oeste 0 -- -- 71
2020-04-30 20:00:00 12.6 19 Oeste 41 Oeste 0 -- -- 68
2020-04-30 19:00:00 12.8 26 Oeste 39 Oeste 0 -- -- 66
2020-04-30 18:00:00 13.3 26 Oeste 44 Oeste 0 -- -- 64
2020-04-30 17:00:00 13.3 27 Oeste 49 Oeste 0 -- -- 62
2020-04-30 16:00:00 12.6 30 Oeste 52 Oeste 0 -- -- 67
2020-04-30 15:00:00 12.7 34 Oeste 55 Oeste 0 -- -- 66
2020-04-30 14:00:00 12 35 Oeste 55 Oeste 0 -- -- 65
2020-04-30 13:00:00 11.7 40 Oeste 57 Oeste 0 -- -- 64
2020-04-30 12:00:00 11.4 35 Oeste 62 Oeste 0 -- -- 63
2020-04-30 11:00:00 10.5 41 Oeste 58 Oeste 0 -- -- 66
2020-04-30 10:00:00 9.6 27 Oeste 43 Oeste 0 -- -- 69
2020-04-30 09:00:00 9.4 13 Oeste 32 Noroeste 0 -- -- 65
2020-04-30 08:00:00 8.2 25 Noroeste 35 Oeste 0 -- -- 74
2020-04-30 07:00:00 7.7 23 Oeste 37 Oeste 0 -- -- 78
2020-04-30 06:00:00 8 24 Oeste 37 Oeste 0 -- -- 79
2020-04-30 05:00:00 8.2 22 Oeste 39 Oeste 0 -- -- 79
2020-04-30 04:00:00 8.7 23 Oeste 38 Oeste 0 -- -- 81
2020-04-30 03:00:00 9.2 13 Oeste 23 Oeste 0 -- -- 85
2020-04-30 02:00:00 8.9 15 Sudoeste 22 Sudoeste 0 -- -- 87
2020-04-30 01:00:00 9.6 16 Sudoeste 25 Sudoeste 0 -- -- 82
2020-04-30 00:00:00 10.3 18 Sudoeste 24 Sudoeste 0 -- -- 80
2020-04-29 23:00:00 10.5 15 Sudoeste 31 Oeste 0 -- -- 77
2020-04-29 22:00:00 11 17 Oeste 43 Oeste 0 -- -- 74
2020-04-29 21:00:00 12.1 32 Noroeste 58 Oeste 0 -- -- 69
2020-04-29 20:00:00 13.9 35 Noroeste 46 Oeste 0 -- -- 63
2020-04-29 19:00:00 14 23 Oeste 44 Sudoeste 0 -- -- 64
2020-04-29 18:00:00 15.1 28 Sudoeste 40 Sudoeste 0 -- -- 58
2020-04-29 17:00:00 15.2 30 Sudoeste 46 Sudoeste 0 -- -- 58
2020-04-29 16:00:00 14.6 28 Sudoeste 44 Sudoeste 0 -- -- 59
2020-04-29 15:00:00 14.6 20 Sudoeste 36 Sudoeste 0 -- -- 58
2020-04-29 14:00:00 14.6 23 Sudoeste 37 Sudoeste 0 -- -- 63
2020-04-29 13:00:00 12.9 15 Sudoeste 25 Sur 0 -- -- 62
2020-04-29 12:00:00 12 13 Sudoeste 29 Oeste 0 -- -- 65
2020-04-29 11:00:00 11 18 Noroeste 27 Noroeste 0 -- -- 67
2020-04-29 10:00:00 9.2 13 Oeste 20 Oeste 0 -- -- 77
2020-04-29 09:00:00 6.8 9 Oeste 13 Oeste 0 -- -- 88
2020-04-29 08:00:00 5.2 5 Oeste 15 Oeste 0 -- -- 89
2020-04-29 07:00:00 5.2 6 Oeste 11 Noroeste 0 -- -- 88
2020-04-29 06:00:00 5.4 6 Oeste 18 Oeste 0 -- -- 85
2020-04-29 05:00:00 6.5 15 Oeste 35 Oeste 0 -- -- 83
2020-04-29 04:00:00 6.8 19 Oeste 30 Oeste 0 -- -- 84
2020-04-29 03:00:00 6.8 16 Oeste 30 Oeste 0 -- -- 81
2020-04-29 02:00:00 7 15 Oeste 30 Oeste 0 -- -- 81
2020-04-29 01:00:00 7.4 18 Oeste 32 Oeste 0 -- -- 78
2020-04-29 00:00:00 7.3 19 Oeste 30 Oeste 0 -- -- 78
2020-04-28 23:00:00 7.7 12 Oeste 24 Oeste 0 -- -- 79
2020-04-28 22:00:00 9.2 20 Oeste 31 Oeste 0 -- -- 72
2020-04-28 21:00:00 10.4 17 Oeste 40 Oeste 0 -- -- 64
2020-04-28 20:00:00 11.4 23 Oeste 43 Oeste 0 -- -- 60
2020-04-28 19:00:00 11.6 27 Oeste 39 Noroeste 0 -- -- 59
2020-04-28 18:00:00 12.1 26 Noroeste 40 Oeste 0 -- -- 54
2020-04-28 17:00:00 13.1 28 Noroeste 47 Oeste 0 -- -- 50
2020-04-28 16:00:00 12.3 32 Noroeste 47 Noroeste 0 -- -- 55
2020-04-28 15:00:00 12 31 Noroeste 45 Oeste 0 -- -- 55
2020-04-28 14:00:00 11.9 28 Oeste 45 Oeste 0 -- -- 52
2020-04-28 13:00:00 10.1 32 Oeste 46 Oeste 0 -- -- 61
2020-04-28 12:00:00 9.7 37 Oeste 49 Oeste 0 -- -- 60
2020-04-28 11:00:00 7.5 27 Oeste 45 Oeste 0 -- -- 81
2020-04-28 10:00:00 7.4 17 Oeste 34 Oeste 0.2 -- -- 86
2020-04-28 09:00:00 6.5 19 Oeste 26 Noroeste 0.2 -- -- 91
2020-04-28 08:00:00 6.2 7 Oeste 10 Oeste 0 -- -- 90
2020-04-28 07:00:00 5.9 11 Oeste 17 Oeste 0 -- -- 89
2020-04-28 06:00:00 5.6 11 Oeste 21 Oeste 0 -- -- 90
2020-04-28 05:00:00 5.8 16 Oeste 24 Oeste 0 -- -- 88
2020-04-28 04:00:00 5.8 13 Oeste 24 Oeste 0 -- -- 89
2020-04-28 03:00:00 6.1 12 Oeste 20 Oeste 0 -- -- 90
2020-04-28 02:00:00 6.6 18 Oeste 33 Oeste 0 -- -- 89
2020-04-28 01:00:00 7.2 24 Oeste 38 Oeste 0 -- -- 86
2020-04-28 00:00:00 6.5 8 Oeste 15 Sudoeste 0 -- -- 87
2020-04-27 23:00:00 7.5 9 Oeste 27 Noroeste 0 -- -- 86
2020-04-27 22:00:00 7.2 12 Sudoeste 42 Oeste 0 -- -- 84
2020-04-27 21:00:00 8.5 23 Oeste 44 Oeste 0 -- -- 83
2020-04-27 20:00:00 7.7 8 Oeste 37 Oeste 0.2 -- -- 88
2020-04-27 19:00:00 7.6 23 Oeste 47 Oeste 0.4 -- -- 88
2020-04-27 18:00:00 9.1 28 Noroeste 41 Oeste 0 -- -- 80
2020-04-27 17:00:00 10.9 9 Noroeste 34 Oeste 0 -- -- 80
2020-04-27 16:00:00 10.6 13 Noroeste 42 Oeste 0.6 -- -- 81
2020-04-27 15:00:00 11.1 8 Noroeste 33 Oeste 0 -- -- 73
2020-04-27 14:00:00 11 8 Noroeste 20 Noroeste 0 -- -- 79
2020-04-27 13:00:00 9.3 16 Noroeste 24 Oeste 0.2 -- -- 82
2020-04-27 12:00:00 8.8 17 Noroeste 27 Noroeste 0 -- -- 84
2020-04-27 11:00:00 10.8 14 Sudoeste 21 Sudoeste 0 -- -- 79
2020-04-27 10:00:00 9.2 10 Sudoeste 24 Sudoeste 0 -- -- 84
2020-04-27 09:00:00 8.2 17 Sudoeste 33 Sudoeste 0 -- -- 90
2020-04-27 08:00:00 7.3 27 Sudoeste 35 Sudoeste 0 -- -- 93
2020-04-27 07:00:00 7.3 14 Sur 21 Sur 0 -- -- 93
2020-04-27 06:00:00 8 13 Sur 21 Sudoeste 0 -- -- 92
2020-04-27 05:00:00 8.4 14 Sur 17 Sur 0 -- -- 91
2020-04-27 04:00:00 8.9 0 Calma 9 Oeste 0 -- -- 94
2020-04-27 03:00:00 8.9 5 Sudoeste 8 Sudoeste 0 -- -- 93
2020-04-27 02:00:00 9.5 5 Oeste 13 Oeste 0 -- -- 92
2020-04-27 01:00:00 9.8 3 Noroeste 9 Oeste 0 -- -- 94
2020-04-27 00:00:00 9.8 2 Oeste 13 Oeste 0 -- -- 93
2020-04-26 23:00:00 10.4 4 Norte 10 Sudeste 0 -- -- 94
2020-04-26 22:00:00 10.8 4 Sudeste 8 Sudoeste 0 -- -- 93
2020-04-26 21:00:00 11.4 4 Oeste 27 Sudoeste 0.8 -- -- 92
2020-04-26 20:00:00 11 5 Este 13 Sudeste 0.2 -- -- 94
2020-04-26 19:00:00 10.7 4 Sudeste 30 Sudoeste 1.8 -- -- 91
2020-04-26 18:00:00 11.7 13 Sudeste 21 Sudeste 0.8 -- -- 89
2020-04-26 17:00:00 11.2 4 Oeste 20 Oeste 2.4 -- -- 93
2020-04-26 16:00:00 11.3 3 Sudoeste 13 Sur 0.8 -- -- 93
2020-04-26 15:00:00 11.2 8 Sudoeste 14 Sudoeste 1.8 -- -- 91
2020-04-26 14:00:00 10.7 7 Noroeste 14 Noroeste 4 -- -- 95
2020-04-26 13:00:00 12 11 Norte 17 Norte 0.4 -- -- 88
2020-04-26 12:00:00 11.7 8 Nordeste 14 Nordeste 1.4 -- -- 94
2020-04-26 11:00:00 12.1 6 Nordeste 8 Nordeste 0 -- -- 88
2020-04-26 10:00:00 -- 0 Calma -- -- 0 -- -- --
2020-04-26 09:00:00 10.1 0 Calma 3 Noroeste 0 -- -- 96
2020-04-26 08:00:00 9.8 2 Norte 4 Nordeste 0 -- -- 95
2020-04-26 07:00:00 9.8 0 Calma 3 Norte 0 -- -- 93
2020-04-26 06:00:00 9.9 2 Noroeste 5 Noroeste 0 -- -- 91
2020-04-26 05:00:00 9.9 3 Norte 6 Noroeste 0 -- -- 90
2020-04-26 04:00:00 10.2 4 Noroeste 7 Oeste 0 -- -- 90
2020-04-26 03:00:00 10.6 2 Noroeste 4 Oeste 0 -- -- 88
2020-04-26 02:00:00 10.7 5 Oeste 13 Noroeste 0 -- -- 88
2020-04-26 01:00:00 11 9 Oeste 19 Oeste 0 -- -- 88
2020-04-26 00:00:00 11.2 16 Noroeste 24 Noroeste 0 -- -- 90